sensor_id;sensor_type;location;lat;lon;timestamp;P1;durP1;ratioP1;P2;durP2;ratioP2
36551;SDS011;22559;54.176;12.102;2023-03-01T00:01:21;13.40;;;11.17;;
36551;SDS011;22559;54.176;12.102;2023-03-01T00:03:49;11.47;;;7.93;;
36551;SDS011;22559;54.176;12.102;2023-03-01T00:06:15;7.67;;;6.87;;
36551;SDS011;22559;54.176;12.102;2023-03-01T00:08:41;8.33;;;6.83;;
36551;SDS011;22559;54.176;12.102;2023-03-01T00:11:12;8.37;;;6.27;;
36551;SDS011;22559;54.176;12.102;2023-03-01T00:13:39;7.47;;;6.37;;
36551;SDS011;22559;54.176;12.102;2023-03-01T00:16:08;7.90;;;5.70;;
36551;SDS011;22559;54.176;12.102;2023-03-01T00:18:35;7.03;;;5.63;;
36551;SDS011;22559;54.176;12.102;2023-03-01T00:21:01;7.17;;;5.93;;
36551;SDS011;22559;54.176;12.102;2023-03-01T00:23:27;10.60;;;9.17;;
36551;SDS011;22559;54.176;12.102;2023-03-01T00:25:53;9.53;;;8.57;;
36551;SDS011;22559;54.176;12.102;2023-03-01T00:28:19;9.03;;;6.77;;
36551;SDS011;22559;54.176;12.102;2023-03-01T00:30:45;9.30;;;6.13;;
36551;SDS011;22559;54.176;12.102;2023-03-01T00:33:10;12.43;;;6.57;;
36551;SDS011;22559;54.176;12.102;2023-03-01T00:35:36;8.67;;;5.90;;
36551;SDS011;22559;54.176;12.102;2023-03-01T00:38:02;8.80;;;6.40;;
36551;SDS011;22559;54.176;12.102;2023-03-01T00:40:28;8.57;;;6.00;;
36551;SDS011;22559;54.176;12.102;2023-03-01T00:42:55;6.93;;;6.10;;
36551;SDS011;22559;54.176;12.102;2023-03-01T00:45:21;7.27;;;6.03;;
36551;SDS011;22559;54.176;12.102;2023-03-01T00:47:48;8.93;;;6.40;;
36551;SDS011;22559;54.176;12.102;2023-03-01T00:50:14;8.20;;;6.20;;
36551;SDS011;22559;54.176;12.102;2023-03-01T00:52:40;6.37;;;5.53;;
36551;SDS011;22559;54.176;12.102;2023-03-01T00:55:05;8.23;;;6.47;;
36551;SDS011;22559;54.176;12.102;2023-03-01T00:57:32;8.97;;;6.57;;
36551;SDS011;22559;54.176;12.102;2023-03-01T00:59:58;8.83;;;6.00;;
36551;SDS011;22559;54.176;12.102;2023-03-01T01:02:24;7.00;;;5.67;;
36551;SDS011;22559;54.176;12.102;2023-03-01T01:04:50;14.63;;;6.93;;
36551;SDS011;22559;54.176;12.102;2023-03-01T01:07:15;7.83;;;5.80;;
36551;SDS011;22559;54.176;12.102;2023-03-01T01:09:41;8.87;;;6.20;;
36551;SDS011;22559;54.176;12.102;2023-03-01T01:12:07;8.07;;;5.90;;
36551;SDS011;22559;54.176;12.102;2023-03-01T01:14:33;6.03;;;5.20;;
36551;SDS011;22559;54.176;12.102;2023-03-01T01:16:59;6.43;;;5.77;;
36551;SDS011;22559;54.176;12.102;2023-03-01T01:19:25;6.23;;;4.87;;
36551;SDS011;22559;54.176;12.102;2023-03-01T01:21:51;6.80;;;4.40;;
36551;SDS011;22559;54.176;12.102;2023-03-01T01:24:17;4.77;;;4.37;;
36551;SDS011;22559;54.176;12.102;2023-03-01T01:26:44;5.97;;;4.43;;
36551;SDS011;22559;54.176;12.102;2023-03-01T01:29:10;4.50;;;4.10;;
36551;SDS011;22559;54.176;12.102;2023-03-01T01:31:36;3.70;;;3.40;;
36551;SDS011;22559;54.176;12.102;2023-03-01T01:34:05;5.30;;;4.20;;
36551;SDS011;22559;54.176;12.102;2023-03-01T01:36:32;3.57;;;3.27;;
36551;SDS011;22559;54.176;12.102;2023-03-01T01:38:59;6.40;;;3.33;;
36551;SDS011;22559;54.176;12.102;2023-03-01T01:41:25;4.67;;;3.83;;
36551;SDS011;22559;54.176;12.102;2023-03-01T01:46:49;4.63;;;3.37;;
36551;SDS011;22559;54.176;12.102;2023-03-01T01:49:23;5.40;;;4.00;;
36551;SDS011;22559;54.176;12.102;2023-03-01T01:51:57;3.90;;;3.50;;
36551;SDS011;22559;54.176;12.102;2023-03-01T01:54:35;4.33;;;3.93;;
36551;SDS011;22559;54.176;12.102;2023-03-01T01:57:11;3.93;;;3.53;;
36551;SDS011;22559;54.176;12.102;2023-03-01T01:59:41;3.93;;;3.53;;
36551;SDS011;22559;54.176;12.102;2023-03-01T02:02:10;4.37;;;3.40;;
36551;SDS011;22559;54.176;12.102;2023-03-01T02:04:37;5.50;;;3.87;;
36551;SDS011;22559;54.176;12.102;2023-03-01T02:07:06;3.90;;;3.50;;
36551;SDS011;22559;54.176;12.102;2023-03-01T02:09:34;5.73;;;3.97;;
36551;SDS011;22559;54.176;12.102;2023-03-01T02:12:01;4.30;;;3.80;;
36551;SDS011;22559;54.176;12.102;2023-03-01T02:14:29;4.30;;;4.00;;
36551;SDS011;22559;54.176;12.102;2023-03-01T02:16:54;4.87;;;3.93;;
36551;SDS011;22559;54.176;12.102;2023-03-01T02:19:30;4.60;;;3.93;;
36551;SDS011;22559;54.176;12.102;2023-03-01T02:27:40;4.20;;;3.80;;
36551;SDS011;22559;54.176;12.102;2023-03-01T02:30:14;5.00;;;4.50;;
36551;SDS011;22559;54.176;12.102;2023-03-01T02:32:40;5.20;;;4.70;;
36551;SDS011;22559;54.176;12.102;2023-03-01T02:35:10;7.03;;;4.47;;
36551;SDS011;22559;54.176;12.102;2023-03-01T02:37:39;6.77;;;4.37;;
36551;SDS011;22559;54.176;12.102;2023-03-01T02:40:07;5.60;;;4.60;;
36551;SDS011;22559;54.176;12.102;2023-03-01T02:42:57;4.77;;;4.30;;
36551;SDS011;22559;54.176;12.102;2023-03-01T02:45:24;6.20;;;4.60;;
36551;SDS011;22559;54.176;12.102;2023-03-01T02:47:53;6.23;;;4.53;;
36551;SDS011;22559;54.176;12.102;2023-03-01T02:53:01;4.83;;;4.10;;
36551;SDS011;22559;54.176;12.102;2023-03-01T02:55:34;4.87;;;4.37;;
36551;SDS011;22559;54.176;12.102;2023-03-01T02:58:00;6.30;;;5.57;;
36551;SDS011;22559;54.176;12.102;2023-03-01T03:00:35;5.20;;;4.70;;
36551;SDS011;22559;54.176;12.102;2023-03-01T03:03:15;6.57;;;4.53;;
36551;SDS011;22559;54.176;12.102;2023-03-01T03:05:42;7.17;;;4.60;;
36551;SDS011;22559;54.176;12.102;2023-03-01T03:08:08;5.40;;;4.90;;
36551;SDS011;22559;54.176;12.102;2023-03-01T03:10:35;7.53;;;5.67;;
36551;SDS011;22559;54.176;12.102;2023-03-01T03:13:09;5.37;;;4.80;;
36551;SDS011;22559;54.176;12.102;2023-03-01T03:15:36;7.30;;;5.13;;
36551;SDS011;22559;54.176;12.102;2023-03-01T03:18:04;6.90;;;5.40;;
36551;SDS011;22559;54.176;12.102;2023-03-01T03:20:32;6.00;;;5.40;;
36551;SDS011;22559;54.176;12.102;2023-03-01T03:22:58;8.30;;;5.43;;
36551;SDS011;22559;54.176;12.102;2023-03-01T03:25:25;6.50;;;5.67;;
36551;SDS011;22559;54.176;12.102;2023-03-01T03:27:52;7.30;;;5.57;;
36551;SDS011;22559;54.176;12.102;2023-03-01T03:30:21;6.70;;;5.33;;
36551;SDS011;22559;54.176;12.102;2023-03-01T03:32:49;8.10;;;5.57;;
36551;SDS011;22559;54.176;12.102;2023-03-01T03:35:18;6.70;;;5.90;;
36551;SDS011;22559;54.176;12.102;2023-03-01T03:37:45;6.93;;;5.90;;
36551;SDS011;22559;54.176;12.102;2023-03-01T03:43:03;8.17;;;5.87;;
36551;SDS011;22559;54.176;12.102;2023-03-01T03:45:31;9.03;;;6.50;;
36551;SDS011;22559;54.176;12.102;2023-03-01T03:47:58;7.83;;;6.57;;
36551;SDS011;22559;54.176;12.102;2023-03-01T03:50:25;10.67;;;6.37;;
36551;SDS011;22559;54.176;12.102;2023-03-01T03:52:51;8.67;;;6.30;;
36551;SDS011;22559;54.176;12.102;2023-03-01T03:55:16;9.00;;;6.63;;
36551;SDS011;22559;54.176;12.102;2023-03-01T03:57:44;9.30;;;6.73;;
36551;SDS011;22559;54.176;12.102;2023-03-01T04:00:16;9.27;;;6.47;;
36551;SDS011;22559;54.176;12.102;2023-03-01T04:02:43;11.03;;;7.03;;
36551;SDS011;22559;54.176;12.102;2023-03-01T04:05:11;7.43;;;6.10;;
36551;SDS011;22559;54.176;12.102;2023-03-01T04:07:39;10.10;;;6.10;;
36551;SDS011;22559;54.176;12.102;2023-03-01T04:10:06;8.37;;;5.90;;
36551;SDS011;22559;54.176;12.102;2023-03-01T04:12:34;7.47;;;6.20;;
36551;SDS011;22559;54.176;12.102;2023-03-01T04:15:00;6.97;;;5.83;;
36551;SDS011;22559;54.176;12.102;2023-03-01T04:17:37;7.47;;;5.90;;
36551;SDS011;22559;54.176;12.102;2023-03-01T04:20:04;8.23;;;5.60;;
36551;SDS011;22559;54.176;12.102;2023-03-01T04:22:30;8.47;;;6.73;;
36551;SDS011;22559;54.176;12.102;2023-03-01T04:24:57;9.50;;;6.40;;
36551;SDS011;22559;54.176;12.102;2023-03-01T04:27:23;7.57;;;6.77;;
36551;SDS011;22559;54.176;12.102;2023-03-01T04:29:48;8.57;;;5.57;;
36551;SDS011;22559;54.176;12.102;2023-03-01T04:32:14;8.50;;;6.70;;
36551;SDS011;22559;54.176;12.102;2023-03-01T04:34:41;9.00;;;6.60;;
36551;SDS011;22559;54.176;12.102;2023-03-01T04:37:06;10.50;;;7.17;;
36551;SDS011;22559;54.176;12.102;2023-03-01T04:39:33;7.83;;;6.53;;
36551;SDS011;22559;54.176;12.102;2023-03-01T04:42:11;11.03;;;6.87;;
36551;SDS011;22559;54.176;12.102;2023-03-01T04:44:37;10.03;;;7.40;;
36551;SDS011;22559;54.176;12.102;2023-03-01T04:47:02;9.90;;;6.80;;
36551;SDS011;22559;54.176;12.102;2023-03-01T04:49:28;9.23;;;7.40;;
36551;SDS011;22559;54.176;12.102;2023-03-01T04:51:54;8.73;;;7.20;;
36551;SDS011;22559;54.176;12.102;2023-03-01T04:54:20;10.63;;;7.30;;
36551;SDS011;22559;54.176;12.102;2023-03-01T04:56:45;9.13;;;7.13;;
36551;SDS011;22559;54.176;12.102;2023-03-01T04:59:11;8.60;;;6.70;;
36551;SDS011;22559;54.176;12.102;2023-03-01T05:01:37;11.20;;;7.27;;
36551;SDS011;22559;54.176;12.102;2023-03-01T05:04:03;11.13;;;7.07;;
36551;SDS011;22559;54.176;12.102;2023-03-01T05:06:30;8.87;;;7.10;;
36551;SDS011;22559;54.176;12.102;2023-03-01T05:08:57;10.37;;;7.80;;
36551;SDS011;22559;54.176;12.102;2023-03-01T05:11:23;11.67;;;7.60;;
36551;SDS011;22559;54.176;12.102;2023-03-01T05:13:49;11.57;;;6.80;;
36551;SDS011;22559;54.176;12.102;2023-03-01T05:16:19;12.37;;;8.57;;
36551;SDS011;22559;54.176;12.102;2023-03-01T05:18:49;11.47;;;7.93;;
36551;SDS011;22559;54.176;12.102;2023-03-01T05:21:16;11.40;;;8.17;;
36551;SDS011;22559;54.176;12.102;2023-03-01T05:23:42;12.67;;;8.33;;
36551;SDS011;22559;54.176;12.102;2023-03-01T05:26:08;11.53;;;7.80;;
36551;SDS011;22559;54.176;12.102;2023-03-01T05:28:37;10.77;;;8.10;;
36551;SDS011;22559;54.176;12.102;2023-03-01T05:31:04;12.67;;;9.10;;
36551;SDS011;22559;54.176;12.102;2023-03-01T05:33:37;12.27;;;8.27;;
36551;SDS011;22559;54.176;12.102;2023-03-01T05:36:05;16.33;;;9.03;;
36551;SDS011;22559;54.176;12.102;2023-03-01T05:38:32;12.77;;;8.63;;
36551;SDS011;22559;54.176;12.102;2023-03-01T05:40:58;13.50;;;9.27;;
36551;SDS011;22559;54.176;12.102;2023-03-01T05:43:24;13.03;;;8.50;;
36551;SDS011;22559;54.176;12.102;2023-03-01T05:45:49;13.70;;;9.03;;
36551;SDS011;22559;54.176;12.102;2023-03-01T05:48:15;10.80;;;7.93;;
36551;SDS011;22559;54.176;12.102;2023-03-01T05:50:42;12.43;;;8.80;;
36551;SDS011;22559;54.176;12.102;2023-03-01T05:53:19;12.60;;;8.70;;
36551;SDS011;22559;54.176;12.102;2023-03-01T05:55:48;12.57;;;8.97;;
36551;SDS011;22559;54.176;12.102;2023-03-01T05:58:16;16.30;;;9.17;;
36551;SDS011;22559;54.176;12.102;2023-03-01T06:00:44;13.43;;;8.17;;
36551;SDS011;22559;54.176;12.102;2023-03-01T06:03:11;12.00;;;8.47;;
36551;SDS011;22559;54.176;12.102;2023-03-01T06:05:38;15.03;;;9.43;;
36551;SDS011;22559;54.176;12.102;2023-03-01T06:08:04;13.13;;;8.40;;
36551;SDS011;22559;54.176;12.102;2023-03-01T06:10:30;19.90;;;10.37;;
36551;SDS011;22559;54.176;12.102;2023-03-01T06:12:57;13.87;;;9.40;;
36551;SDS011;22559;54.176;12.102;2023-03-01T06:15:26;16.10;;;10.80;;
36551;SDS011;22559;54.176;12.102;2023-03-01T06:17:53;15.20;;;10.00;;
36551;SDS011;22559;54.176;12.102;2023-03-01T06:20:22;17.73;;;11.03;;
36551;SDS011;22559;54.176;12.102;2023-03-01T06:22:49;19.97;;;11.53;;
36551;SDS011;22559;54.176;12.102;2023-03-01T06:25:16;23.07;;;12.07;;
36551;SDS011;22559;54.176;12.102;2023-03-01T06:27:44;16.10;;;11.27;;
36551;SDS011;22559;54.176;12.102;2023-03-01T06:30:10;20.57;;;12.30;;
36551;SDS011;22559;54.176;12.102;2023-03-01T06:32:39;21.63;;;12.90;;
36551;SDS011;22559;54.176;12.102;2023-03-01T06:35:07;19.07;;;11.90;;
36551;SDS011;22559;54.176;12.102;2023-03-01T06:37:33;19.30;;;12.57;;
36551;SDS011;22559;54.176;12.102;2023-03-01T06:40:00;19.90;;;11.97;;
36551;SDS011;22559;54.176;12.102;2023-03-01T06:42:31;18.77;;;11.97;;
36551;SDS011;22559;54.176;12.102;2023-03-01T06:44:57;22.90;;;13.53;;
36551;SDS011;22559;54.176;12.102;2023-03-01T06:47:23;21.40;;;13.47;;
36551;SDS011;22559;54.176;12.102;2023-03-01T06:49:48;21.20;;;13.00;;
36551;SDS011;22559;54.176;12.102;2023-03-01T06:52:14;20.40;;;12.93;;
36551;SDS011;22559;54.176;12.102;2023-03-01T06:54:40;22.77;;;13.43;;
36551;SDS011;22559;54.176;12.102;2023-03-01T06:57:05;24.53;;;13.87;;
36551;SDS011;22559;54.176;12.102;2023-03-01T06:59:31;24.77;;;14.20;;
36551;SDS011;22559;54.176;12.102;2023-03-01T07:01:56;22.10;;;13.50;;
36551;SDS011;22559;54.176;12.102;2023-03-01T07:04:22;21.07;;;13.17;;
36551;SDS011;22559;54.176;12.102;2023-03-01T07:06:48;109.87;;;47.73;;
36551;SDS011;22559;54.176;12.102;2023-03-01T07:09:20;29.13;;;17.23;;
36551;SDS011;22559;54.176;12.102;2023-03-01T07:11:47;21.67;;;13.93;;
36551;SDS011;22559;54.176;12.102;2023-03-01T07:14:12;23.60;;;14.47;;
36551;SDS011;22559;54.176;12.102;2023-03-01T07:16:38;20.33;;;12.73;;
36551;SDS011;22559;54.176;12.102;2023-03-01T07:19:04;24.03;;;13.50;;
36551;SDS011;22559;54.176;12.102;2023-03-01T07:21:30;21.60;;;13.80;;
36551;SDS011;22559;54.176;12.102;2023-03-01T07:23:56;26.83;;;14.20;;
36551;SDS011;22559;54.176;12.102;2023-03-01T07:26:22;22.40;;;14.63;;
36551;SDS011;22559;54.176;12.102;2023-03-01T07:28:47;29.03;;;14.77;;
36551;SDS011;22559;54.176;12.102;2023-03-01T07:31:13;26.87;;;15.10;;
36551;SDS011;22559;54.176;12.102;2023-03-01T07:33:39;29.70;;;16.30;;
36551;SDS011;22559;54.176;12.102;2023-03-01T07:36:05;29.40;;;17.03;;
36551;SDS011;22559;54.176;12.102;2023-03-01T07:38:31;34.17;;;17.13;;
36551;SDS011;22559;54.176;12.102;2023-03-01T07:40:57;29.33;;;16.73;;
36551;SDS011;22559;54.176;12.102;2023-03-01T07:43:25;35.03;;;18.57;;
36551;SDS011;22559;54.176;12.102;2023-03-01T07:45:51;32.67;;;17.47;;
36551;SDS011;22559;54.176;12.102;2023-03-01T07:48:17;37.43;;;18.17;;
36551;SDS011;22559;54.176;12.102;2023-03-01T07:50:42;39.23;;;18.13;;
36551;SDS011;22559;54.176;12.102;2023-03-01T07:53:09;35.90;;;17.67;;
36551;SDS011;22559;54.176;12.102;2023-03-01T07:55:35;43.73;;;19.80;;
36551;SDS011;22559;54.176;12.102;2023-03-01T07:58:01;39.33;;;19.27;;
36551;SDS011;22559;54.176;12.102;2023-03-01T08:00:27;41.90;;;20.27;;
36551;SDS011;22559;54.176;12.102;2023-03-01T08:02:53;39.33;;;20.10;;
36551;SDS011;22559;54.176;12.102;2023-03-01T08:05:18;42.10;;;20.37;;
36551;SDS011;22559;54.176;12.102;2023-03-01T08:07:44;33.27;;;19.27;;
36551;SDS011;22559;54.176;12.102;2023-03-01T08:10:10;46.27;;;21.47;;
36551;SDS011;22559;54.176;12.102;2023-03-01T08:12:36;42.13;;;21.13;;
36551;SDS011;22559;54.176;12.102;2023-03-01T08:15:01;42.00;;;20.40;;
36551;SDS011;22559;54.176;12.102;2023-03-01T08:17:27;39.17;;;20.07;;
36551;SDS011;22559;54.176;12.102;2023-03-01T08:19:53;37.60;;;19.57;;
36551;SDS011;22559;54.176;12.102;2023-03-01T08:22:19;37.87;;;20.13;;
36551;SDS011;22559;54.176;12.102;2023-03-01T08:24:44;42.10;;;20.47;;
36551;SDS011;22559;54.176;12.102;2023-03-01T08:27:11;48.50;;;24.73;;
36551;SDS011;22559;54.176;12.102;2023-03-01T08:29:37;41.00;;;20.53;;
36551;SDS011;22559;54.176;12.102;2023-03-01T08:32:02;62.00;;;30.80;;
36551;SDS011;22559;54.176;12.102;2023-03-01T08:34:28;37.63;;;20.40;;
36551;SDS011;22559;54.176;12.102;2023-03-01T08:36:56;52.67;;;23.87;;
36551;SDS011;22559;54.176;12.102;2023-03-01T08:39:21;43.87;;;22.80;;
36551;SDS011;22559;54.176;12.102;2023-03-01T08:41:47;46.47;;;22.60;;
36551;SDS011;22559;54.176;12.102;2023-03-01T08:44:13;44.53;;;23.37;;
36551;SDS011;22559;54.176;12.102;2023-03-01T08:46:41;41.87;;;21.97;;
36551;SDS011;22559;54.176;12.102;2023-03-01T08:49:14;37.07;;;20.70;;
36551;SDS011;22559;54.176;12.102;2023-03-01T08:51:42;45.10;;;20.33;;
36551;SDS011;22559;54.176;12.102;2023-03-01T08:54:13;54.63;;;25.47;;
36551;SDS011;22559;54.176;12.102;2023-03-01T08:56:43;46.80;;;22.07;;
36551;SDS011;22559;54.176;12.102;2023-03-01T08:59:13;44.20;;;21.97;;
36551;SDS011;22559;54.176;12.102;2023-03-01T09:01:40;40.50;;;19.77;;
36551;SDS011;22559;54.176;12.102;2023-03-01T09:04:08;37.73;;;18.70;;
36551;SDS011;22559;54.176;12.102;2023-03-01T09:06:34;41.70;;;20.67;;
36551;SDS011;22559;54.176;12.102;2023-03-01T09:09:00;36.87;;;20.23;;
36551;SDS011;22559;54.176;12.102;2023-03-01T09:11:27;44.10;;;22.50;;
36551;SDS011;22559;54.176;12.102;2023-03-01T09:13:53;39.57;;;19.63;;
36551;SDS011;22559;54.176;12.102;2023-03-01T09:16:19;40.53;;;19.80;;
36551;SDS011;22559;54.176;12.102;2023-03-01T09:18:52;41.83;;;19.80;;
36551;SDS011;22559;54.176;12.102;2023-03-01T09:21:19;38.60;;;18.83;;
36551;SDS011;22559;54.176;12.102;2023-03-01T09:23:48;37.40;;;18.67;;
36551;SDS011;22559;54.176;12.102;2023-03-01T09:26:23;36.43;;;18.70;;
36551;SDS011;22559;54.176;12.102;2023-03-01T09:28:50;38.13;;;19.23;;
36551;SDS011;22559;54.176;12.102;2023-03-01T09:31:20;41.03;;;19.83;;
36551;SDS011;22559;54.176;12.102;2023-03-01T09:33:47;42.17;;;20.67;;
36551;SDS011;22559;54.176;12.102;2023-03-01T09:36:15;39.23;;;19.37;;
36551;SDS011;22559;54.176;12.102;2023-03-01T09:38:43;32.80;;;17.40;;
36551;SDS011;22559;54.176;12.102;2023-03-01T09:41:09;41.77;;;20.27;;
36551;SDS011;22559;54.176;12.102;2023-03-01T09:46:11;35.93;;;18.10;;
36551;SDS011;22559;54.176;12.102;2023-03-01T09:48:43;38.87;;;18.53;;
36551;SDS011;22559;54.176;12.102;2023-03-01T09:51:31;38.50;;;18.77;;
36551;SDS011;22559;54.176;12.102;2023-03-01T09:54:00;38.23;;;19.50;;
36551;SDS011;22559;54.176;12.102;2023-03-01T09:56:34;39.53;;;18.83;;
36551;SDS011;22559;54.176;12.102;2023-03-01T10:04:54;37.93;;;18.67;;
36551;SDS011;22559;54.176;12.102;2023-03-01T10:10:23;40.87;;;19.07;;
36551;SDS011;22559;54.176;12.102;2023-03-01T10:13:00;41.13;;;19.57;;
36551;SDS011;22559;54.176;12.102;2023-03-01T10:15:43;42.20;;;19.27;;
36551;SDS011;22559;54.176;12.102;2023-03-01T10:18:15;38.60;;;19.00;;
36551;SDS011;22559;54.176;12.102;2023-03-01T10:23:26;43.10;;;18.77;;
36551;SDS011;22559;54.176;12.102;2023-03-01T10:31:24;43.40;;;19.57;;
36551;SDS011;22559;54.176;12.102;2023-03-01T10:33:54;56.10;;;27.40;;
36551;SDS011;22559;54.176;12.102;2023-03-01T10:36:22;44.47;;;21.13;;
36551;SDS011;22559;54.176;12.102;2023-03-01T10:38:55;42.17;;;20.33;;
36551;SDS011;22559;54.176;12.102;2023-03-01T10:41:23;38.23;;;19.57;;
36551;SDS011;22559;54.176;12.102;2023-03-01T10:49:39;37.83;;;18.07;;
36551;SDS011;22559;54.176;12.102;2023-03-01T10:51:51;62.77;;;27.53;;
36551;SDS011;22559;54.176;12.102;2023-03-01T10:56:58;38.43;;;19.13;;
36551;SDS011;22559;54.176;12.102;2023-03-01T11:02:14;39.77;;;18.47;;
36551;SDS011;22559;54.176;12.102;2023-03-01T11:04:46;40.63;;;18.63;;
36551;SDS011;22559;54.176;12.102;2023-03-01T11:07:23;32.80;;;17.20;;
36551;SDS011;22559;54.176;12.102;2023-03-01T11:09:48;39.00;;;18.07;;
36551;SDS011;22559;54.176;12.102;2023-03-01T11:12:14;44.47;;;20.60;;
36551;SDS011;22559;54.176;12.102;2023-03-01T11:14:51;43.97;;;20.30;;
36551;SDS011;22559;54.176;12.102;2023-03-01T11:17:23;41.23;;;19.33;;
36551;SDS011;22559;54.176;12.102;2023-03-01T11:20:00;38.57;;;18.53;;
36551;SDS011;22559;54.176;12.102;2023-03-01T11:22:59;38.73;;;18.03;;
36551;SDS011;22559;54.176;12.102;2023-03-01T11:25:39;35.60;;;17.93;;
36551;SDS011;22559;54.176;12.102;2023-03-01T11:28:16;37.70;;;17.00;;
36551;SDS011;22559;54.176;12.102;2023-03-01T11:30:54;41.70;;;20.30;;
36551;SDS011;22559;54.176;12.102;2023-03-01T11:33:29;42.27;;;19.77;;
36551;SDS011;22559;54.176;12.102;2023-03-01T11:36:49;42.63;;;19.30;;
36551;SDS011;22559;54.176;12.102;2023-03-01T11:39:02;35.13;;;17.80;;
36551;SDS011;22559;54.176;12.102;2023-03-01T11:41:41;33.23;;;17.07;;
36551;SDS011;22559;54.176;12.102;2023-03-01T11:44:15;35.60;;;17.33;;
36551;SDS011;22559;54.176;12.102;2023-03-01T12:06:01;28.47;;;14.97;;
36551;SDS011;22559;54.176;12.102;2023-03-01T12:19:27;24.63;;;14.13;;
36551;SDS011;22559;54.176;12.102;2023-03-01T12:33:04;26.60;;;14.57;;
36551;SDS011;22559;54.176;12.102;2023-03-01T12:36:03;33.30;;;16.00;;
36551;SDS011;22559;54.176;12.102;2023-03-01T12:44:06;29.57;;;15.73;;
36551;SDS011;22559;54.176;12.102;2023-03-01T12:49:33;33.23;;;15.67;;
36551;SDS011;22559;54.176;12.102;2023-03-01T12:52:16;26.53;;;14.73;;
36551;SDS011;22559;54.176;12.102;2023-03-01T12:54:52;30.53;;;15.13;;
36551;SDS011;22559;54.176;12.102;2023-03-01T12:57:24;28.40;;;15.90;;
36551;SDS011;22559;54.176;12.102;2023-03-01T13:10:48;30.00;;;15.97;;
36551;SDS011;22559;54.176;12.102;2023-03-01T13:13:21;33.57;;;15.60;;
36551;SDS011;22559;54.176;12.102;2023-03-01T13:15:49;31.43;;;14.07;;
36551;SDS011;22559;54.176;12.102;2023-03-01T13:26:13;113.23;;;50.53;;
36551;SDS011;22559;54.176;12.102;2023-03-01T13:31:10;28.03;;;15.03;;
36551;SDS011;22559;54.176;12.102;2023-03-01T13:41:49;32.83;;;15.23;;
36551;SDS011;22559;54.176;12.102;2023-03-01T13:46:48;32.77;;;16.20;;
36551;SDS011;22559;54.176;12.102;2023-03-01T13:49:15;32.63;;;15.90;;
36551;SDS011;22559;54.176;12.102;2023-03-01T13:51:46;31.97;;;15.70;;
36551;SDS011;22559;54.176;12.102;2023-03-01T13:54:12;28.53;;;14.47;;
36551;SDS011;22559;54.176;12.102;2023-03-01T13:56:40;31.83;;;15.50;;
36551;SDS011;22559;54.176;12.102;2023-03-01T13:59:17;25.87;;;14.20;;
36551;SDS011;22559;54.176;12.102;2023-03-01T14:01:53;25.10;;;12.60;;
36551;SDS011;22559;54.176;12.102;2023-03-01T14:04:27;25.23;;;13.30;;
36551;SDS011;22559;54.176;12.102;2023-03-01T14:09:59;20.93;;;11.73;;
36551;SDS011;22559;54.176;12.102;2023-03-01T14:15:19;30.50;;;12.23;;
36551;SDS011;22559;54.176;12.102;2023-03-01T14:20:23;25.10;;;11.37;;
36551;SDS011;22559;54.176;12.102;2023-03-01T14:22:52;22.77;;;11.53;;
36551;SDS011;22559;54.176;12.102;2023-03-01T14:25:21;21.27;;;10.47;;
36551;SDS011;22559;54.176;12.102;2023-03-01T14:27:57;21.03;;;10.90;;
36551;SDS011;22559;54.176;12.102;2023-03-01T14:30:42;16.67;;;10.37;;
36551;SDS011;22559;54.176;12.102;2023-03-01T14:33:20;19.37;;;10.27;;
36551;SDS011;22559;54.176;12.102;2023-03-01T14:38:46;21.97;;;11.70;;
36551;SDS011;22559;54.176;12.102;2023-03-01T14:41:15;25.10;;;12.20;;
36551;SDS011;22559;54.176;12.102;2023-03-01T14:43:57;21.40;;;10.87;;
36551;SDS011;22559;54.176;12.102;2023-03-01T14:46:35;23.03;;;11.97;;
36551;SDS011;22559;54.176;12.102;2023-03-01T14:49:04;23.90;;;11.17;;
36551;SDS011;22559;54.176;12.102;2023-03-01T14:51:40;22.07;;;11.10;;
36551;SDS011;22559;54.176;12.102;2023-03-01T14:54:18;19.10;;;10.53;;
36551;SDS011;22559;54.176;12.102;2023-03-01T14:56:57;22.13;;;11.37;;
36551;SDS011;22559;54.176;12.102;2023-03-01T14:59:24;20.63;;;11.97;;
36551;SDS011;22559;54.176;12.102;2023-03-01T15:01:51;23.87;;;11.37;;
36551;SDS011;22559;54.176;12.102;2023-03-01T15:04:19;22.70;;;11.57;;
36551;SDS011;22559;54.176;12.102;2023-03-01T15:06:47;21.00;;;11.77;;
36551;SDS011;22559;54.176;12.102;2023-03-01T15:09:16;20.77;;;10.87;;
36551;SDS011;22559;54.176;12.102;2023-03-01T15:11:43;21.23;;;10.77;;
36551;SDS011;22559;54.176;12.102;2023-03-01T15:14:26;23.27;;;10.37;;
36551;SDS011;22559;54.176;12.102;2023-03-01T15:16:53;19.27;;;10.87;;
36551;SDS011;22559;54.176;12.102;2023-03-01T15:19:27;21.27;;;11.67;;
36551;SDS011;22559;54.176;12.102;2023-03-01T15:21:54;21.47;;;11.10;;
36551;SDS011;22559;54.176;12.102;2023-03-01T15:24:23;20.33;;;11.30;;
36551;SDS011;22559;54.176;12.102;2023-03-01T15:26:51;23.27;;;11.30;;
36551;SDS011;22559;54.176;12.102;2023-03-01T15:29:31;20.80;;;11.20;;
36551;SDS011;22559;54.176;12.102;2023-03-01T15:32:05;20.47;;;10.17;;
36551;SDS011;22559;54.176;12.102;2023-03-01T15:34:49;19.03;;;9.90;;
36551;SDS011;22559;54.176;12.102;2023-03-01T15:40:22;20.90;;;10.67;;
36551;SDS011;22559;54.176;12.102;2023-03-01T15:42:59;18.97;;;9.97;;
36551;SDS011;22559;54.176;12.102;2023-03-01T15:45:27;16.10;;;10.30;;
36551;SDS011;22559;54.176;12.102;2023-03-01T15:47:58;18.03;;;9.67;;
36551;SDS011;22559;54.176;12.102;2023-03-01T15:50:29;17.17;;;10.00;;
36551;SDS011;22559;54.176;12.102;2023-03-01T15:52:55;51.43;;;29.73;;
36551;SDS011;22559;54.176;12.102;2023-03-01T15:58:00;28.90;;;21.27;;
36551;SDS011;22559;54.176;12.102;2023-03-01T16:00:35;24.00;;;15.67;;
36551;SDS011;22559;54.176;12.102;2023-03-01T16:03:01;141.50;;;67.53;;
36551;SDS011;22559;54.176;12.102;2023-03-01T16:05:27;35.23;;;19.10;;
36551;SDS011;22559;54.176;12.102;2023-03-01T16:07:55;29.10;;;13.03;;
36551;SDS011;22559;54.176;12.102;2023-03-01T16:10:21;29.10;;;13.63;;
36551;SDS011;22559;54.176;12.102;2023-03-01T16:12:48;17.77;;;10.27;;
36551;SDS011;22559;54.176;12.102;2023-03-01T16:15:23;17.97;;;10.30;;
36551;SDS011;22559;54.176;12.102;2023-03-01T16:17:54;25.83;;;11.20;;
36551;SDS011;22559;54.176;12.102;2023-03-01T16:20:20;20.33;;;10.13;;
36551;SDS011;22559;54.176;12.102;2023-03-01T16:22:46;20.80;;;9.80;;
36551;SDS011;22559;54.176;12.102;2023-03-01T16:25:13;19.10;;;10.53;;
36551;SDS011;22559;54.176;12.102;2023-03-01T16:27:47;15.90;;;9.27;;
36551;SDS011;22559;54.176;12.102;2023-03-01T16:30:15;24.83;;;10.07;;
36551;SDS011;22559;54.176;12.102;2023-03-01T16:32:44;19.50;;;10.03;;
36551;SDS011;22559;54.176;12.102;2023-03-01T16:35:11;24.17;;;10.23;;
36551;SDS011;22559;54.176;12.102;2023-03-01T16:37:39;16.80;;;9.43;;
36551;SDS011;22559;54.176;12.102;2023-03-01T16:40:06;25.10;;;10.00;;
36551;SDS011;22559;54.176;12.102;2023-03-01T16:42:40;22.40;;;9.83;;
36551;SDS011;22559;54.176;12.102;2023-03-01T16:45:07;18.30;;;9.80;;
36551;SDS011;22559;54.176;12.102;2023-03-01T16:47:33;18.80;;;9.67;;
36551;SDS011;22559;54.176;12.102;2023-03-01T16:49:59;21.13;;;11.00;;
36551;SDS011;22559;54.176;12.102;2023-03-01T16:52:25;25.97;;;8.83;;